sensor_id;sensor_type;location;lat;lon;timestamp;P1;durP1;ratioP1;P2;durP2;ratioP2
51943;SDS011;37969;53.132;6.370;2023-09-18T00:00:46;34.10;;;21.05;;
51943;SDS011;37969;53.132;6.370;2023-09-18T00:03:17;39.47;;;19.70;;
51943;SDS011;37969;53.132;6.370;2023-09-18T00:05:46;28.48;;;21.55;;
51943;SDS011;37969;53.132;6.370;2023-09-18T00:08:13;38.17;;;20.15;;
51943;SDS011;37969;53.132;6.370;2023-09-18T00:10:40;38.13;;;19.05;;
51943;SDS011;37969;53.132;6.370;2023-09-18T00:13:06;28.10;;;19.63;;
51943;SDS011;37969;53.132;6.370;2023-09-18T00:15:32;21.98;;;18.10;;
51943;SDS011;37969;53.132;6.370;2023-09-18T00:17:58;24.85;;;19.35;;
51943;SDS011;37969;53.132;6.370;2023-09-18T00:20:26;21.27;;;18.27;;
51943;SDS011;37969;53.132;6.370;2023-09-18T00:22:53;31.60;;;21.10;;
51943;SDS011;37969;53.132;6.370;2023-09-18T00:25:20;30.83;;;20.77;;
51943;SDS011;37969;53.132;6.370;2023-09-18T00:27:46;35.72;;;24.10;;
51943;SDS011;37969;53.132;6.370;2023-09-18T00:30:12;30.58;;;21.45;;
51943;SDS011;37969;53.132;6.370;2023-09-18T00:32:39;27.55;;;20.80;;
51943;SDS011;37969;53.132;6.370;2023-09-18T00:35:05;28.20;;;20.45;;
51943;SDS011;37969;53.132;6.370;2023-09-18T00:37:31;31.27;;;20.70;;
51943;SDS011;37969;53.132;6.370;2023-09-18T00:39:58;30.17;;;20.33;;
51943;SDS011;37969;53.132;6.370;2023-09-18T00:42:24;33.28;;;21.83;;
51943;SDS011;37969;53.132;6.370;2023-09-18T00:44:50;26.15;;;20.65;;
51943;SDS011;37969;53.132;6.370;2023-09-18T00:47:17;25.40;;;19.40;;
51943;SDS011;37969;53.132;6.370;2023-09-18T00:49:44;25.55;;;19.38;;
51943;SDS011;37969;53.132;6.370;2023-09-18T00:52:13;31.85;;;21.17;;
51943;SDS011;37969;53.132;6.370;2023-09-18T00:54:40;33.85;;;22.40;;
51943;SDS011;37969;53.132;6.370;2023-09-18T00:57:06;30.55;;;22.15;;
51943;SDS011;37969;53.132;6.370;2023-09-18T00:59:35;29.88;;;21.63;;
51943;SDS011;37969;53.132;6.370;2023-09-18T01:02:02;24.70;;;18.42;;
51943;SDS011;37969;53.132;6.370;2023-09-18T01:04:28;21.20;;;17.67;;
51943;SDS011;37969;53.132;6.370;2023-09-18T01:06:58;23.07;;;18.50;;
51943;SDS011;37969;53.132;6.370;2023-09-18T01:09:26;27.20;;;19.88;;
51943;SDS011;37969;53.132;6.370;2023-09-18T01:14:21;30.60;;;21.42;;
51943;SDS011;37969;53.132;6.370;2023-09-18T01:16:51;28.88;;;21.58;;
51943;SDS011;37969;53.132;6.370;2023-09-18T01:22:05;32.38;;;21.80;;
51943;SDS011;37969;53.132;6.370;2023-09-18T01:24:32;33.08;;;22.92;;
51943;SDS011;37969;53.132;6.370;2023-09-18T01:26:58;31.35;;;21.67;;
51943;SDS011;37969;53.132;6.370;2023-09-18T01:29:25;34.75;;;22.58;;
51943;SDS011;37969;53.132;6.370;2023-09-18T01:31:51;34.63;;;22.50;;
51943;SDS011;37969;53.132;6.370;2023-09-18T01:34:18;27.67;;;20.88;;
51943;SDS011;37969;53.132;6.370;2023-09-18T01:36:45;28.42;;;21.08;;
51943;SDS011;37969;53.132;6.370;2023-09-18T01:39:12;29.70;;;21.45;;
51943;SDS011;37969;53.132;6.370;2023-09-18T01:41:38;25.75;;;18.95;;
51943;SDS011;37969;53.132;6.370;2023-09-18T01:44:04;22.25;;;17.15;;
51943;SDS011;37969;53.132;6.370;2023-09-18T01:46:31;23.90;;;19.30;;
51943;SDS011;37969;53.132;6.370;2023-09-18T01:49:01;27.65;;;19.83;;
51943;SDS011;37969;53.132;6.370;2023-09-18T01:51:27;25.77;;;21.02;;
51943;SDS011;37969;53.132;6.370;2023-09-18T01:53:54;20.05;;;17.88;;
51943;SDS011;37969;53.132;6.370;2023-09-18T01:56:20;22.80;;;17.48;;
51943;SDS011;37969;53.132;6.370;2023-09-18T01:58:46;38.10;;;17.90;;
51943;SDS011;37969;53.132;6.370;2023-09-18T02:01:12;22.95;;;18.75;;
51943;SDS011;37969;53.132;6.370;2023-09-18T02:03:39;27.33;;;20.08;;
51943;SDS011;37969;53.132;6.370;2023-09-18T02:06:06;28.25;;;21.85;;
51943;SDS011;37969;53.132;6.370;2023-09-18T02:08:32;29.77;;;22.55;;
51943;SDS011;37969;53.132;6.370;2023-09-18T02:10:58;30.15;;;23.63;;
51943;SDS011;37969;53.132;6.370;2023-09-18T02:13:24;36.00;;;25.33;;
51943;SDS011;37969;53.132;6.370;2023-09-18T02:15:51;35.15;;;25.83;;
51943;SDS011;37969;53.132;6.370;2023-09-18T02:18:17;34.45;;;26.65;;
51943;SDS011;37969;53.132;6.370;2023-09-18T02:20:44;34.30;;;25.98;;
51943;SDS011;37969;53.132;6.370;2023-09-18T02:23:12;36.30;;;26.95;;
51943;SDS011;37969;53.132;6.370;2023-09-18T02:25:39;37.78;;;26.88;;
51943;SDS011;37969;53.132;6.370;2023-09-18T02:28:05;35.28;;;26.88;;
51943;SDS011;37969;53.132;6.370;2023-09-18T02:30:32;31.75;;;25.45;;
51943;SDS011;37969;53.132;6.370;2023-09-18T02:32:58;33.65;;;27.08;;
51943;SDS011;37969;53.132;6.370;2023-09-18T02:35:25;34.90;;;26.45;;
51943;SDS011;37969;53.132;6.370;2023-09-18T02:37:51;33.60;;;26.05;;
51943;SDS011;37969;53.132;6.370;2023-09-18T02:40:18;35.00;;;25.88;;
51943;SDS011;37969;53.132;6.370;2023-09-18T02:42:44;35.13;;;27.02;;
51943;SDS011;37969;53.132;6.370;2023-09-18T02:45:10;36.22;;;26.25;;
51943;SDS011;37969;53.132;6.370;2023-09-18T02:47:36;33.70;;;26.33;;
51943;SDS011;37969;53.132;6.370;2023-09-18T02:50:06;35.65;;;26.70;;
51943;SDS011;37969;53.132;6.370;2023-09-18T02:52:32;37.38;;;29.40;;
51943;SDS011;37969;53.132;6.370;2023-09-18T02:54:59;34.67;;;26.58;;
51943;SDS011;37969;53.132;6.370;2023-09-18T02:57:25;38.92;;;30.17;;
51943;SDS011;37969;53.132;6.370;2023-09-18T02:59:51;37.58;;;29.40;;
51943;SDS011;37969;53.132;6.370;2023-09-18T03:02:17;33.72;;;26.90;;
51943;SDS011;37969;53.132;6.370;2023-09-18T03:04:43;35.35;;;28.42;;
51943;SDS011;37969;53.132;6.370;2023-09-18T03:07:12;35.85;;;28.45;;
51943;SDS011;37969;53.132;6.370;2023-09-18T03:09:38;35.08;;;27.45;;
51943;SDS011;37969;53.132;6.370;2023-09-18T03:12:04;41.72;;;30.48;;
51943;SDS011;37969;53.132;6.370;2023-09-18T03:14:30;33.83;;;28.30;;
51943;SDS011;37969;53.132;6.370;2023-09-18T03:16:57;37.15;;;27.55;;
51943;SDS011;37969;53.132;6.370;2023-09-18T03:19:23;35.70;;;27.85;;
51943;SDS011;37969;53.132;6.370;2023-09-18T03:21:49;37.47;;;28.38;;
51943;SDS011;37969;53.132;6.370;2023-09-18T03:24:16;36.00;;;28.48;;
51943;SDS011;37969;53.132;6.370;2023-09-18T03:26:42;35.35;;;25.85;;
51943;SDS011;37969;53.132;6.370;2023-09-18T03:29:08;32.88;;;25.58;;
51943;SDS011;37969;53.132;6.370;2023-09-18T03:31:34;27.73;;;23.85;;
51943;SDS011;37969;53.132;6.370;2023-09-18T03:34:01;32.60;;;27.38;;
51943;SDS011;37969;53.132;6.370;2023-09-18T03:36:27;32.88;;;26.88;;
51943;SDS011;37969;53.132;6.370;2023-09-18T03:38:53;30.27;;;26.08;;
51943;SDS011;37969;53.132;6.370;2023-09-18T03:41:19;37.08;;;27.35;;
51943;SDS011;37969;53.132;6.370;2023-09-18T03:43:46;30.85;;;26.65;;
51943;SDS011;37969;53.132;6.370;2023-09-18T03:46:14;36.67;;;26.50;;
51943;SDS011;37969;53.132;6.370;2023-09-18T03:48:40;32.83;;;26.52;;
51943;SDS011;37969;53.132;6.370;2023-09-18T03:51:06;28.98;;;25.00;;
51943;SDS011;37969;53.132;6.370;2023-09-18T03:53:35;30.95;;;25.20;;
51943;SDS011;37969;53.132;6.370;2023-09-18T03:56:02;27.92;;;24.52;;
51943;SDS011;37969;53.132;6.370;2023-09-18T03:58:28;33.47;;;25.42;;
51943;SDS011;37969;53.132;6.370;2023-09-18T04:00:54;31.92;;;25.40;;
51943;SDS011;37969;53.132;6.370;2023-09-18T04:03:21;29.50;;;23.90;;
51943;SDS011;37969;53.132;6.370;2023-09-18T04:05:48;29.58;;;23.83;;
51943;SDS011;37969;53.132;6.370;2023-09-18T04:08:14;27.40;;;23.73;;
51943;SDS011;37969;53.132;6.370;2023-09-18T04:10:40;29.23;;;23.67;;
51943;SDS011;37969;53.132;6.370;2023-09-18T04:13:06;29.63;;;23.13;;
51943;SDS011;37969;53.132;6.370;2023-09-18T04:15:35;26.20;;;21.80;;
51943;SDS011;37969;53.132;6.370;2023-09-18T04:18:03;28.83;;;22.27;;
51943;SDS011;37969;53.132;6.370;2023-09-18T04:20:30;25.55;;;21.52;;
51943;SDS011;37969;53.132;6.370;2023-09-18T04:25:42;24.75;;;21.08;;
51943;SDS011;37969;53.132;6.370;2023-09-18T04:28:08;26.40;;;20.05;;
51943;SDS011;37969;53.132;6.370;2023-09-18T04:30:34;24.50;;;19.70;;
51943;SDS011;37969;53.132;6.370;2023-09-18T04:33:01;26.58;;;20.30;;
51943;SDS011;37969;53.132;6.370;2023-09-18T04:35:27;26.42;;;20.88;;
51943;SDS011;37969;53.132;6.370;2023-09-18T04:37:55;23.42;;;19.58;;
51943;SDS011;37969;53.132;6.370;2023-09-18T04:40:22;24.00;;;19.20;;
51943;SDS011;37969;53.132;6.370;2023-09-18T04:42:49;24.25;;;19.98;;
51943;SDS011;37969;53.132;6.370;2023-09-18T04:45:15;23.63;;;18.50;;
51943;SDS011;37969;53.132;6.370;2023-09-18T04:47:41;22.55;;;20.15;;
51943;SDS011;37969;53.132;6.370;2023-09-18T04:50:08;21.33;;;18.73;;
51943;SDS011;37969;53.132;6.370;2023-09-18T04:52:36;21.92;;;18.75;;
51943;SDS011;37969;53.132;6.370;2023-09-18T04:55:02;24.33;;;19.35;;
51943;SDS011;37969;53.132;6.370;2023-09-18T04:57:31;23.58;;;18.35;;
51943;SDS011;37969;53.132;6.370;2023-09-18T04:59:57;27.60;;;19.83;;
51943;SDS011;37969;53.132;6.370;2023-09-18T05:02:23;21.80;;;18.35;;
51943;SDS011;37969;53.132;6.370;2023-09-18T05:04:50;22.80;;;19.65;;
51943;SDS011;37969;53.132;6.370;2023-09-18T05:07:17;23.15;;;18.77;;
51943;SDS011;37969;53.132;6.370;2023-09-18T05:09:43;21.55;;;18.17;;
51943;SDS011;37969;53.132;6.370;2023-09-18T05:12:11;28.13;;;17.10;;
51943;SDS011;37969;53.132;6.370;2023-09-18T05:14:39;21.30;;;18.40;;
51943;SDS011;37969;53.132;6.370;2023-09-18T05:17:06;19.05;;;17.05;;
51943;SDS011;37969;53.132;6.370;2023-09-18T05:19:32;26.15;;;18.40;;
51943;SDS011;37969;53.132;6.370;2023-09-18T05:21:58;20.90;;;17.45;;
51943;SDS011;37969;53.132;6.370;2023-09-18T05:24:25;18.70;;;16.70;;
51943;SDS011;37969;53.132;6.370;2023-09-18T05:26:52;21.67;;;16.52;;
51943;SDS011;37969;53.132;6.370;2023-09-18T05:29:19;22.05;;;18.30;;
51943;SDS011;37969;53.132;6.370;2023-09-18T05:31:45;19.08;;;15.73;;
51943;SDS011;37969;53.132;6.370;2023-09-18T05:34:12;18.77;;;14.90;;
51943;SDS011;37969;53.132;6.370;2023-09-18T05:36:38;16.83;;;14.05;;
51943;SDS011;37969;53.132;6.370;2023-09-18T05:39:05;20.65;;;15.80;;
51943;SDS011;37969;53.132;6.370;2023-09-18T05:41:38;16.02;;;13.63;;
51943;SDS011;37969;53.132;6.370;2023-09-18T05:44:04;14.85;;;13.35;;
51943;SDS011;37969;53.132;6.370;2023-09-18T05:46:34;16.02;;;13.43;;
51943;SDS011;37969;53.132;6.370;2023-09-18T05:49:01;14.48;;;12.98;;
51943;SDS011;37969;53.132;6.370;2023-09-18T05:51:27;18.48;;;13.25;;
51943;SDS011;37969;53.132;6.370;2023-09-18T05:53:53;14.80;;;13.15;;
51943;SDS011;37969;53.132;6.370;2023-09-18T05:56:19;16.52;;;12.07;;
51943;SDS011;37969;53.132;6.370;2023-09-18T05:58:46;16.63;;;13.25;;
51943;SDS011;37969;53.132;6.370;2023-09-18T06:01:12;18.15;;;13.13;;
51943;SDS011;37969;53.132;6.370;2023-09-18T06:03:38;16.08;;;13.27;;
51943;SDS011;37969;53.132;6.370;2023-09-18T06:06:05;17.40;;;13.02;;
51943;SDS011;37969;53.132;6.370;2023-09-18T06:08:31;16.42;;;11.73;;
51943;SDS011;37969;53.132;6.370;2023-09-18T06:10:58;20.40;;;13.13;;
51943;SDS011;37969;53.132;6.370;2023-09-18T06:13:25;13.55;;;11.75;;
51943;SDS011;37969;53.132;6.370;2023-09-18T06:15:51;15.98;;;12.38;;
51943;SDS011;37969;53.132;6.370;2023-09-18T06:18:19;17.67;;;12.05;;
51943;SDS011;37969;53.132;6.370;2023-09-18T06:20:46;17.13;;;11.93;;
51943;SDS011;37969;53.132;6.370;2023-09-18T06:23:12;15.57;;;12.02;;
51943;SDS011;37969;53.132;6.370;2023-09-18T06:25:39;17.35;;;11.90;;
51943;SDS011;37969;53.132;6.370;2023-09-18T06:28:05;14.32;;;11.82;;
51943;SDS011;37969;53.132;6.370;2023-09-18T06:30:32;16.35;;;11.93;;
51943;SDS011;37969;53.132;6.370;2023-09-18T06:32:59;16.92;;;11.30;;
51943;SDS011;37969;53.132;6.370;2023-09-18T06:35:27;18.08;;;12.40;;
51943;SDS011;37969;53.132;6.370;2023-09-18T06:37:53;16.67;;;12.35;;
51943;SDS011;37969;53.132;6.370;2023-09-18T06:40:23;19.83;;;13.80;;
51943;SDS011;37969;53.132;6.370;2023-09-18T06:42:50;16.75;;;13.55;;
51943;SDS011;37969;53.132;6.370;2023-09-18T06:45:17;22.85;;;13.95;;
51943;SDS011;37969;53.132;6.370;2023-09-18T06:47:43;20.85;;;13.30;;
51943;SDS011;37969;53.132;6.370;2023-09-18T06:50:10;17.67;;;13.05;;
51943;SDS011;37969;53.132;6.370;2023-09-18T06:52:37;19.85;;;14.00;;
51943;SDS011;37969;53.132;6.370;2023-09-18T06:55:03;17.67;;;14.23;;
51943;SDS011;37969;53.132;6.370;2023-09-18T06:57:30;19.80;;;14.55;;
51943;SDS011;37969;53.132;6.370;2023-09-18T06:59:56;19.63;;;14.93;;
51943;SDS011;37969;53.132;6.370;2023-09-18T07:02:23;23.55;;;15.90;;
51943;SDS011;37969;53.132;6.370;2023-09-18T07:04:49;23.70;;;16.40;;
51943;SDS011;37969;53.132;6.370;2023-09-18T07:07:15;21.40;;;15.77;;
51943;SDS011;37969;53.132;6.370;2023-09-18T07:09:41;24.25;;;15.82;;
51943;SDS011;37969;53.132;6.370;2023-09-18T07:12:08;20.33;;;16.48;;
51943;SDS011;37969;53.132;6.370;2023-09-18T07:14:35;21.88;;;16.33;;
51943;SDS011;37969;53.132;6.370;2023-09-18T07:17:03;18.08;;;16.23;;
51943;SDS011;37969;53.132;6.370;2023-09-18T07:19:29;22.80;;;15.45;;
51943;SDS011;37969;53.132;6.370;2023-09-18T07:21:56;23.88;;;16.50;;
51943;SDS011;37969;53.132;6.370;2023-09-18T07:24:22;20.00;;;15.88;;
51943;SDS011;37969;53.132;6.370;2023-09-18T07:26:48;22.88;;;15.77;;
51943;SDS011;37969;53.132;6.370;2023-09-18T07:29:15;22.92;;;16.48;;
51943;SDS011;37969;53.132;6.370;2023-09-18T07:31:41;18.65;;;15.95;;
51943;SDS011;37969;53.132;6.370;2023-09-18T07:34:08;25.65;;;17.67;;
51943;SDS011;37969;53.132;6.370;2023-09-18T07:36:34;25.27;;;17.42;;
51943;SDS011;37969;53.132;6.370;2023-09-18T07:39:01;21.95;;;17.50;;
51943;SDS011;37969;53.132;6.370;2023-09-18T07:41:27;30.85;;;19.48;;
51943;SDS011;37969;53.132;6.370;2023-09-18T07:43:53;22.45;;;17.23;;
51943;SDS011;37969;53.132;6.370;2023-09-18T07:46:19;25.33;;;17.27;;
51943;SDS011;37969;53.132;6.370;2023-09-18T07:48:46;23.05;;;17.42;;
51943;SDS011;37969;53.132;6.370;2023-09-18T07:51:12;23.45;;;16.83;;
51943;SDS011;37969;53.132;6.370;2023-09-18T07:53:39;20.52;;;15.23;;
51943;SDS011;37969;53.132;6.370;2023-09-18T07:56:05;20.25;;;15.05;;
51943;SDS011;37969;53.132;6.370;2023-09-18T07:58:32;19.42;;;14.50;;
51943;SDS011;37969;53.132;6.370;2023-09-18T08:00:58;19.23;;;14.80;;
51943;SDS011;37969;53.132;6.370;2023-09-18T08:03:25;19.52;;;14.60;;
51943;SDS011;37969;53.132;6.370;2023-09-18T08:05:52;18.02;;;15.23;;
51943;SDS011;37969;53.132;6.370;2023-09-18T08:08:19;22.08;;;14.98;;
51943;SDS011;37969;53.132;6.370;2023-09-18T08:10:46;17.98;;;14.35;;
51943;SDS011;37969;53.132;6.370;2023-09-18T08:13:13;20.98;;;16.25;;
51943;SDS011;37969;53.132;6.370;2023-09-18T08:15:39;21.15;;;15.23;;
51943;SDS011;37969;53.132;6.370;2023-09-18T08:18:05;22.00;;;14.10;;
51943;SDS011;37969;53.132;6.370;2023-09-18T08:20:31;20.70;;;14.68;;
51943;SDS011;37969;53.132;6.370;2023-09-18T08:22:58;19.77;;;13.43;;
51943;SDS011;37969;53.132;6.370;2023-09-18T08:25:26;20.20;;;14.15;;
51943;SDS011;37969;53.132;6.370;2023-09-18T08:27:53;17.40;;;13.50;;
51943;SDS011;37969;53.132;6.370;2023-09-18T08:30:19;18.75;;;13.85;;
51943;SDS011;37969;53.132;6.370;2023-09-18T08:32:46;18.50;;;13.60;;
51943;SDS011;37969;53.132;6.370;2023-09-18T08:35:13;17.60;;;13.38;;
51943;SDS011;37969;53.132;6.370;2023-09-18T08:37:41;17.08;;;13.93;;
51943;SDS011;37969;53.132;6.370;2023-09-18T08:40:09;20.08;;;14.98;;
51943;SDS011;37969;53.132;6.370;2023-09-18T08:42:38;23.98;;;14.25;;
51943;SDS011;37969;53.132;6.370;2023-09-18T08:45:06;20.92;;;14.40;;
51943;SDS011;37969;53.132;6.370;2023-09-18T08:50:00;18.83;;;14.32;;
51943;SDS011;37969;53.132;6.370;2023-09-18T08:52:27;18.83;;;13.70;;
51943;SDS011;37969;53.132;6.370;2023-09-18T08:54:53;21.33;;;15.63;;
51943;SDS011;37969;53.132;6.370;2023-09-18T08:57:20;24.52;;;14.95;;
51943;SDS011;37969;53.132;6.370;2023-09-18T08:59:47;21.67;;;14.73;;
51943;SDS011;37969;53.132;6.370;2023-09-18T09:02:14;18.80;;;14.10;;
51943;SDS011;37969;53.132;6.370;2023-09-18T09:04:40;18.88;;;14.55;;
51943;SDS011;37969;53.132;6.370;2023-09-18T09:07:06;17.40;;;13.55;;
51943;SDS011;37969;53.132;6.370;2023-09-18T09:09:33;17.23;;;15.00;;
51943;SDS011;37969;53.132;6.370;2023-09-18T09:12:00;19.58;;;14.75;;
51943;SDS011;37969;53.132;6.370;2023-09-18T09:14:26;20.20;;;14.20;;
51943;SDS011;37969;53.132;6.370;2023-09-18T09:16:54;24.50;;;15.70;;
51943;SDS011;37969;53.132;6.370;2023-09-18T09:19:28;23.63;;;14.75;;
51943;SDS011;37969;53.132;6.370;2023-09-18T09:21:56;19.88;;;13.00;;
51943;SDS011;37969;53.132;6.370;2023-09-18T09:24:44;16.58;;;13.23;;
51943;SDS011;37969;53.132;6.370;2023-09-18T09:27:10;16.58;;;13.00;;
51943;SDS011;37969;53.132;6.370;2023-09-18T09:29:39;15.90;;;12.65;;
51943;SDS011;37969;53.132;6.370;2023-09-18T09:32:17;16.75;;;12.07;;
51943;SDS011;37969;53.132;6.370;2023-09-18T09:34:44;15.48;;;11.10;;
51943;SDS011;37969;53.132;6.370;2023-09-18T09:37:12;13.70;;;12.02;;
51943;SDS011;37969;53.132;6.370;2023-09-18T09:39:47;13.20;;;11.85;;
51943;SDS011;37969;53.132;6.370;2023-09-18T09:42:15;17.08;;;12.65;;
51943;SDS011;37969;53.132;6.370;2023-09-18T09:44:42;15.98;;;13.45;;
51943;SDS011;37969;53.132;6.370;2023-09-18T09:47:08;13.85;;;12.20;;
51943;SDS011;37969;53.132;6.370;2023-09-18T09:49:45;16.67;;;12.40;;
51943;SDS011;37969;53.132;6.370;2023-09-18T09:52:18;15.60;;;13.25;;
51943;SDS011;37969;53.132;6.370;2023-09-18T09:54:46;17.55;;;14.75;;
51943;SDS011;37969;53.132;6.370;2023-09-18T09:57:12;19.63;;;14.70;;
51943;SDS011;37969;53.132;6.370;2023-09-18T09:59:39;17.42;;;13.90;;
51943;SDS011;37969;53.132;6.370;2023-09-18T10:02:10;19.80;;;14.43;;
51943;SDS011;37969;53.132;6.370;2023-09-18T10:04:40;17.55;;;14.73;;
51943;SDS011;37969;53.132;6.370;2023-09-18T10:07:08;18.67;;;14.52;;
51943;SDS011;37969;53.132;6.370;2023-09-18T10:09:35;21.70;;;15.75;;
51943;SDS011;37969;53.132;6.370;2023-09-18T10:12:02;16.58;;;14.85;;
51943;SDS011;37969;53.132;6.370;2023-09-18T10:14:30;16.95;;;14.73;;
51943;SDS011;37969;53.132;6.370;2023-09-18T10:16:59;22.73;;;15.88;;
51943;SDS011;37969;53.132;6.370;2023-09-18T10:19:36;19.80;;;16.00;;
51943;SDS011;37969;53.132;6.370;2023-09-18T10:24:33;19.85;;;13.95;;
51943;SDS011;37969;53.132;6.370;2023-09-18T10:27:02;17.63;;;13.55;;
51943;SDS011;37969;53.132;6.370;2023-09-18T10:29:31;14.80;;;13.38;;
51943;SDS011;37969;53.132;6.370;2023-09-18T10:31:58;20.95;;;13.32;;
51943;SDS011;37969;53.132;6.370;2023-09-18T10:34:24;13.63;;;11.88;;
51943;SDS011;37969;53.132;6.370;2023-09-18T10:36:51;13.52;;;11.95;;
51943;SDS011;37969;53.132;6.370;2023-09-18T10:39:18;12.80;;;11.05;;
51943;SDS011;37969;53.132;6.370;2023-09-18T10:41:51;19.38;;;12.65;;
51943;SDS011;37969;53.132;6.370;2023-09-18T10:44:17;15.00;;;10.63;;
51943;SDS011;37969;53.132;6.370;2023-09-18T10:46:44;11.95;;;9.70;;
51943;SDS011;37969;53.132;6.370;2023-09-18T10:49:11;11.90;;;9.77;;
51943;SDS011;37969;53.132;6.370;2023-09-18T10:51:37;12.13;;;9.93;;
51943;SDS011;37969;53.132;6.370;2023-09-18T10:54:08;10.35;;;8.95;;
51943;SDS011;37969;53.132;6.370;2023-09-18T10:56:34;10.02;;;8.57;;
51943;SDS011;37969;53.132;6.370;2023-09-18T10:59:01;12.60;;;7.90;;
51943;SDS011;37969;53.132;6.370;2023-09-18T11:01:29;10.18;;;7.38;;
51943;SDS011;37969;53.132;6.370;2023-09-18T11:04:00;8.98;;;8.05;;
51943;SDS011;37969;53.132;6.370;2023-09-18T11:06:27;7.50;;;5.97;;
51943;SDS011;37969;53.132;6.370;2023-09-18T11:09:00;6.57;;;5.90;;
51943;SDS011;37969;53.132;6.370;2023-09-18T11:11:29;6.82;;;6.22;;
51943;SDS011;37969;53.132;6.370;2023-09-18T11:13:58;7.37;;;6.53;;
51943;SDS011;37969;53.132;6.370;2023-09-18T11:18:53;6.95;;;6.20;;
51943;SDS011;37969;53.132;6.370;2023-09-18T11:21:24;6.65;;;6.07;;
51943;SDS011;37969;53.132;6.370;2023-09-18T11:23:57;6.82;;;5.72;;
51943;SDS011;37969;53.132;6.370;2023-09-18T11:26:23;6.97;;;5.45;;
51943;SDS011;37969;53.132;6.370;2023-09-18T11:28:50;5.65;;;5.03;;
51943;SDS011;37969;53.132;6.370;2023-09-18T11:31:18;9.05;;;6.20;;
51943;SDS011;37969;53.132;6.370;2023-09-18T11:33:47;6.07;;;5.50;;
51943;SDS011;37969;53.132;6.370;2023-09-18T11:36:19;9.02;;;5.38;;
51943;SDS011;37969;53.132;6.370;2023-09-18T11:38:57;6.93;;;5.30;;
51943;SDS011;37969;53.132;6.370;2023-09-18T11:41:28;9.23;;;5.70;;
51943;SDS011;37969;53.132;6.370;2023-09-18T11:46:46;7.43;;;5.78;;
51943;SDS011;37969;53.132;6.370;2023-09-18T11:49:16;8.40;;;4.72;;
51943;SDS011;37969;53.132;6.370;2023-09-18T11:51:47;4.95;;;4.32;;
51943;SDS011;37969;53.132;6.370;2023-09-18T11:54:14;7.07;;;5.25;;
51943;SDS011;37969;53.132;6.370;2023-09-18T11:56:42;7.45;;;5.30;;
51943;SDS011;37969;53.132;6.370;2023-09-18T11:59:08;8.55;;;5.68;;
51943;SDS011;37969;53.132;6.370;2023-09-18T12:01:35;6.32;;;5.15;;
51943;SDS011;37969;53.132;6.370;2023-09-18T12:04:04;7.82;;;5.20;;
51943;SDS011;37969;53.132;6.370;2023-09-18T12:06:38;8.35;;;5.25;;
51943;SDS011;37969;53.132;6.370;2023-09-18T12:09:05;6.68;;;5.18;;
51943;SDS011;37969;53.132;6.370;2023-09-18T12:11:33;7.43;;;4.95;;
51943;SDS011;37969;53.132;6.370;2023-09-18T12:14:01;8.20;;;5.93;;
51943;SDS011;37969;53.132;6.370;2023-09-18T12:16:29;6.07;;;4.43;;
51943;SDS011;37969;53.132;6.370;2023-09-18T12:18:55;9.63;;;4.47;;
51943;SDS011;37969;53.132;6.370;2023-09-18T12:21:22;4.95;;;4.32;;
51943;SDS011;37969;53.132;6.370;2023-09-18T12:23:48;5.55;;;4.90;;
51943;SDS011;37969;53.132;6.370;2023-09-18T12:26:16;9.02;;;4.97;;
51943;SDS011;37969;53.132;6.370;2023-09-18T12:28:45;6.38;;;4.70;;
51943;SDS011;37969;53.132;6.370;2023-09-18T12:31:12;5.22;;;4.75;;
51943;SDS011;37969;53.132;6.370;2023-09-18T12:33:39;5.07;;;4.57;;
51943;SDS011;37969;53.132;6.370;2023-09-18T12:36:07;4.70;;;3.78;;
51943;SDS011;37969;53.132;6.370;2023-09-18T12:38:33;5.60;;;4.65;;
51943;SDS011;37969;53.132;6.370;2023-09-18T12:41:02;7.85;;;4.30;;
51943;SDS011;37969;53.132;6.370;2023-09-18T12:43:38;6.50;;;4.13;;
51943;SDS011;37969;53.132;6.370;2023-09-18T12:46:05;5.38;;;4.88;;
51943;SDS011;37969;53.132;6.370;2023-09-18T12:48:32;6.53;;;4.57;;
51943;SDS011;37969;53.132;6.370;2023-09-18T12:51:03;5.78;;;3.30;;
51943;SDS011;37969;53.132;6.370;2023-09-18T12:53:29;4.97;;;3.63;;
51943;SDS011;37969;53.132;6.370;2023-09-18T12:56:04;6.28;;;2.97;;
51943;SDS011;37969;53.132;6.370;2023-09-18T12:58:30;3.85;;;3.25;;
51943;SDS011;37969;53.132;6.370;2023-09-18T13:00:57;5.47;;;4.22;;
51943;SDS011;37969;53.132;6.370;2023-09-18T13:03:23;7.82;;;4.47;;
51943;SDS011;37969;53.132;6.370;2023-09-18T13:05:51;6.07;;;3.70;;
51943;SDS011;37969;53.132;6.370;2023-09-18T13:08:21;6.05;;;4.05;;
51943;SDS011;37969;53.132;6.370;2023-09-18T13:10:48;3.55;;;3.25;;
51943;SDS011;37969;53.132;6.370;2023-09-18T13:13:17;7.85;;;3.83;;
51943;SDS011;37969;53.132;6.370;2023-09-18T13:15:44;4.47;;;3.60;;
51943;SDS011;37969;53.132;6.370;2023-09-18T13:18:12;6.28;;;3.90;;
51943;SDS011;37969;53.132;6.370;2023-09-18T13:20:39;4.88;;;4.38;;
51943;SDS011;37969;53.132;6.370;2023-09-18T13:23:05;6.13;;;4.57;;
51943;SDS011;37969;53.132;6.370;2023-09-18T13:25:33;6.65;;;4.43;;
51943;SDS011;37969;53.132;6.370;2023-09-18T13:28:00;5.03;;;4.07;;
51943;SDS011;37969;53.132;6.370;2023-09-18T13:30:27;7.03;;;4.75;;
51943;SDS011;37969;53.132;6.370;2023-09-18T13:33:01;8.02;;;4.90;;
51943;SDS011;37969;53.132;6.370;2023-09-18T13:35:28;7.00;;;4.97;;
51943;SDS011;37969;53.132;6.370;2023-09-18T13:37:54;6.40;;;4.88;;
51943;SDS011;37969;53.132;6.370;2023-09-18T13:40:21;6.70;;;3.85;;
51943;SDS011;37969;53.132;6.370;2023-09-18T13:42:47;3.42;;;3.00;;
51943;SDS011;37969;53.132;6.370;2023-09-18T13:45:15;5.65;;;3.42;;
51943;SDS011;37969;53.132;6.370;2023-09-18T13:47:42;5.90;;;3.50;;
51943;SDS011;37969;53.132;6.370;2023-09-18T13:50:08;6.55;;;3.25;;
51943;SDS011;37969;53.132;6.370;2023-09-18T13:52:35;5.90;;;3.50;;
51943;SDS011;37969;53.132;6.370;2023-09-18T13:55:02;4.32;;;3.90;;
51943;SDS011;37969;53.132;6.370;2023-09-18T13:57:34;4.95;;;3.28;;
51943;SDS011;37969;53.132;6.370;2023-09-18T14:00:00;4.97;;;3.53;;
51943;SDS011;37969;53.132;6.370;2023-09-18T14:02:30;4.75;;;3.33;;
51943;SDS011;37969;53.132;6.370;2023-09-18T14:04:56;4.35;;;2.97;;
51943;SDS011;37969;53.132;6.370;2023-09-18T14:07:22;6.10;;;3.47;;
51943;SDS011;37969;53.132;6.370;2023-09-18T14:09:48;5.03;;;3.40;;
51943;SDS011;37969;53.132;6.370;2023-09-18T14:12:15;5.03;;;3.50;;
51943;SDS011;37969;53.132;6.370;2023-09-18T14:14:42;7.30;;;3.55;;
51943;SDS011;37969;53.132;6.370;2023-09-18T14:17:09;4.57;;;3.10;;
51943;SDS011;37969;53.132;6.370;2023-09-18T14:19:36;5.32;;;3.15;;
51943;SDS011;37969;53.132;6.370;2023-09-18T14:22:04;3.80;;;2.70;;
51943;SDS011;37969;53.132;6.370;2023-09-18T14:24:31;4.78;;;3.20;;
51943;SDS011;37969;53.132;6.370;2023-09-18T14:26:59;6.13;;;3.00;;
51943;SDS011;37969;53.132;6.370;2023-09-18T14:29:26;5.45;;;3.05;;
51943;SDS011;37969;53.132;6.370;2023-09-18T14:31:52;4.95;;;2.78;;
51943;SDS011;37969;53.132;6.370;2023-09-18T14:34:18;4.93;;;3.00;;
51943;SDS011;37969;53.132;6.370;2023-09-18T14:36:45;4.72;;;3.10;;
51943;SDS011;37969;53.132;6.370;2023-09-18T14:39:11;6.35;;;3.53;;
51943;SDS011;37969;53.132;6.370;2023-09-18T14:41:38;5.97;;;3.72;;
51943;SDS011;37969;53.132;6.370;2023-09-18T14:44:04;6.20;;;3.00;;
51943;SDS011;37969;53.132;6.370;2023-09-18T14:46:31;6.13;;;3.60;;